WetterOnline ( http://www.wetteronline.de )

Wetter aktuell Selm

Aktuelles Wetter: Lüdenscheid (392m)

6-stündlich | Neueste Meldungen
Ortszeit Temperatur Wetter
Do, 24.05. 14:00 18.7° C bewölkt
Do, 24.05. 8:00 12.4° C leichter Regen
Do, 24.05. 2:00 13.7° C leicht bewölkt
Mi, 23.05. 20:00 20.5° C leicht bewölkt
Mi, 23.05. 14:00 17.5° C leichter Regen
Mi, 23.05. 8:00 13.7° C bedeckt
Mi, 23.05. 2:00 13.4° C bedeckt
Di, 22.05. 20:00 16.7° C wolkig
Ortszeit Temperatur Wetter
Do, 24.05. 19:00 16.8° C bewölkt
Do, 24.05. 18:50 16.8° C bewölkt
Do, 24.05. 18:40 17.1° C bewölkt
Do, 24.05. 18:30 17.2° C bewölkt
Do, 24.05. 18:20 17.2° C bewölkt
Do, 24.05. 18:10 17.4° C wolkig
Do, 24.05. 18:00 17.6° C bedeckt
Do, 24.05. 17:30 17.6° C bedeckt
Do, 24.05. 17:00 17.7° C leichter Regen
Do, 24.05. 16:30 17.5° C bedeckt
Do, 24.05. 16:00 17.3° C bedeckt
Ortszeit Relative Feuchte Sichtweite
Do, 24.05. 14:00 73% 30 km
Do, 24.05. 8:00 95% 12 km
Do, 24.05. 2:00 69% 50 km
Mi, 23.05. 20:00 50% 40 km
Mi, 23.05. 14:00 80% 17 km
Mi, 23.05. 8:00 91% 25 km
Mi, 23.05. 2:00 86% 35 km
Di, 22.05. 20:00 70% 60 km
Ortszeit Relative Feuchte Sichtweite
Do, 24.05. 19:00 79% 27 km
Do, 24.05. 18:50 79% -
Do, 24.05. 18:40 77% -
Do, 24.05. 18:30 76% 30 km
Do, 24.05. 18:20 76% -
Do, 24.05. 18:10 76% -
Do, 24.05. 18:00 76% 35 km
Do, 24.05. 17:30 74% 35 km
Do, 24.05. 17:00 76% 25 km
Do, 24.05. 16:30 77% 30 km
Do, 24.05. 16:00 76% 30 km
Ortszeit Niederschlagsmenge Niederschlagsart
Do, 24.05. 14:00 0.2 l/m2 in 6 Std. Regen
Do, 24.05. 8:00 1 l/m2 in 12 Std. Regen
Do, 24.05. 2:00 0.0 l/m2 in 6 Std. -
Mi, 23.05. 20:00 2 l/m2 in 12 Std. Regen
Mi, 23.05. 14:00 2 l/m2 in 6 Std. Regen
Mi, 23.05. 8:00 0.1 l/m2 in 12 Std. Regen
Mi, 23.05. 2:00 0.1 l/m2 in 6 Std. Regen
Di, 22.05. 20:00 0.7 l/m2 in 12 Std. Regen
Ortszeit Niederschlagsmenge Niederschlagsart
Do, 24.05. 19:00 0.0 l/m2 in 1 Std. -
Do, 24.05. 18:50 keine Meldung -
Do, 24.05. 18:40 keine Meldung -
Do, 24.05. 18:30 0.0 l/m2 in 1 Std. -
Do, 24.05. 18:20 keine Meldung -
Do, 24.05. 18:10 keine Meldung -
Do, 24.05. 18:00 0.1 l/m2 in 1 Std. Regen
Do, 24.05. 17:30 0.1 l/m2 in 1 Std. Schneeregen
Do, 24.05. 17:00 0.1 l/m2 in 1 Std. Regen
Do, 24.05. 16:30 0.1 l/m2 in 1 Std. Schneeregen
Do, 24.05. 16:00 0.0 l/m2 in 1 Std. -
Ortszeit Stärke Spitze Richtung
km/h Bft. km/h Grad Sektor
Do, 24.05. 14:00 7 2 18 90° O
Do, 24.05. 8:00 6 1 28 60° NO
Do, 24.05. 2:00 7 2 22 80° O
Mi, 23.05. 20:00 7 2 36 60° NO
Mi, 23.05. 14:00 4 1 25 90° O
Mi, 23.05. 8:00 4 1 7 60° NO
Mi, 23.05. 2:00 0 0 14 - -
Di, 22.05. 20:00 9 2 26 80° O
Ortszeit Stärke Spitze Richtung
km/h Bft. km/h Grad Sektor
Do, 24.05. 19:00 17 3 31 100° O
Do, 24.05. 18:50 17 3 - 100° O
Do, 24.05. 18:40 18 3 - 90° O
Do, 24.05. 18:30 22 4 32 110° O
Do, 24.05. 18:20 22 4 - 110° O
Do, 24.05. 18:10 17 3 - 100° O
Do, 24.05. 18:00 13 3 31 110° O
Do, 24.05. 17:30 20 4 31 100° O
Do, 24.05. 17:00 14 3 32 100° O
Do, 24.05. 16:30 14 3 32 90° O
Do, 24.05. 16:00 18 3 36 100° O
Ortszeit Untergrenze Bedeckung Gattung
total tief tief mittel hoch
Do, 24.05. 14:00 1170 m 8/8 6/8 - - -
Do, 24.05. 8:00 1800 m 8/8 6/8 - - -
Do, 24.05. 2:00 3000 m 2/8 1/8 - - -
Mi, 23.05. 20:00 9000 m 8/8 0/8 - - -
Mi, 23.05. 14:00 1800 m 8/8 7/8 - - -
Mi, 23.05. 8:00 2100 m 8/8 8/8 - - -
Mi, 23.05. 2:00 3000 m 8/8 8/8 - - -
Di, 22.05. 20:00 2100 m 8/8 2/8 - - -
Ortszeit Bedeckungsgrad in Achtel und Wolkenuntergrenze
Do, 24.05. 19:00 6(570m) 8(4200m) 8(9000m)
Do, 24.05. 18:50 6(570m) 8(4200m) 8(9000m)
Do, 24.05. 18:40 5(570m) 8(4200m) 8(9000m)
Do, 24.05. 18:30 3(600m) 7(2700m) 8(4500m)
Do, 24.05. 18:20 3(600m) 7(2700m) 8(4500m)
Do, 24.05. 18:10 2(600m) 8(3000m) 8(4500m)
Do, 24.05. 18:00 8(720m) 8(3300m) 8(3300m)
Do, 24.05. 17:30 6(690m) 8(2700m) 8(3300m)
Do, 24.05. 17:00 4(600m) 7(2700m) 8(3300m)
Do, 24.05. 16:30 1(570m) 8(1800m) 8(2700m)
Do, 24.05. 16:00 4(660m) 8(1500m)
Ortszeit Luftdruck NN (hPa) Tendenz (hPa in 3 Std.)
Do, 24.05. 14:00 1018 - 0,7
Do, 24.05. 8:00 1020 - 0,4
Do, 24.05. 2:00 1021 - 0,1
Mi, 23.05. 20:00 1019 0,0
Mi, 23.05. 14:00 1020 + 1,2
Mi, 23.05. 8:00 1018 + 1,3
Mi, 23.05. 2:00 1016 + 0,8
Di, 22.05. 20:00 1014 + 0,4
Ortszeit Luftdruck NN (hPa) Tendenz (hPa in 3 Std.)
Do, 24.05. 19:00 1017 - 0,7
Do, 24.05. 18:50 1017 keine Meldung
Do, 24.05. 18:40 1017 keine Meldung
Do, 24.05. 18:30 1017 - 0,7
Do, 24.05. 18:20 1017 keine Meldung
Do, 24.05. 18:10 1017 keine Meldung
Do, 24.05. 18:00 1017 - 0,6
Do, 24.05. 17:30 1018 - 0,6
Do, 24.05. 17:00 1017 - 0,8
Do, 24.05. 16:30 1018 - 0,7
Do, 24.05. 16:00 1018 - 0,7
Ortszeit Schneehöhe (cm)
Do, 24.05. 14:00 -
Do, 24.05. 8:00 -
Do, 24.05. 2:00 -
Mi, 23.05. 20:00 -
Mi, 23.05. 14:00 -
Mi, 23.05. 8:00 -
Mi, 23.05. 2:00 -
Di, 22.05. 20:00 -
Ortszeit Schneehöhe (cm)
Do, 24.05. 19:00 -
Do, 24.05. 18:50 -
Do, 24.05. 18:40 -
Do, 24.05. 18:30 -
Do, 24.05. 18:20 -
Do, 24.05. 18:10 -
Do, 24.05. 18:00 -
Do, 24.05. 17:30 -
Do, 24.05. 17:00 -
Do, 24.05. 16:30 -
Do, 24.05. 16:00 -
Link zu dieser Seite / Seite empfehlen

Das Wetter in ...